Hovedside
METAR-TAF:

METAR-TAF

Lufthavner :

Shanghai-Pudong, Kina

Shanghai Pudong internasjonale lufthavn

breddegrad: 31-07N, lengdegrad: 121-46E, høyde over havet: 4 m

Gjeldene værobservasjon

Denne rapporten ble laget for 34 minutter siden, klokken 19:00 UTC
Vind 6 kt fra Nord
Temperatur 8°C
Luftfuktighet 81%
Trykk 1023 hPa
Sikt 10 km eller mer
Overskyet i en høyde av 2000 ft

METAR: ZSPD 191900Z 01003MPS 9999 OVC020 08/05 Q1023 NOSIG

Tid: 03:34 (19:34 UTC)

Varsel

Denne rapporten ble laget for 4 timer og 12 minutter siden, klokken 15:22 UTC
Varsel gyldig fra 19. klokken 18 UTC til 20. klokken 18 UTC
Vind 6 kt fra Nordøst
Sikt: 3000 m
Brutte skyer i en høyde av 1000 ft
dis
Blir
fra 19. klokken 19 UTC til 19. klokken 20 UTC
Sikt: 1500 m
dis
Blir
fra 20. klokken 00 UTC til 20. klokken 01 UTC
Sikt: 3500 m
dis

TAF: ZSPD 191522Z 1918/2018 04003MPS 3000 BR BKN010 TX10/2006Z TN07/1921Z BECMG 1919/1920 1500 BR BECMG 2000/2001 3500 BR

Værobservasjoner og værvarsel for over 4000 flyplasser (METAR- og TAF-rapporter).

Tilgjengelige stasjoner er representert av de røde og gule prikkene på kartet.

Hold musepekeren over prikken for å se navnet på stasjonen.

Klikk så for å se værobservasjoner og -varsler.

For å forandre kartet kan du klikke på den grønne knappen med svart kryss for å zoome inn, på den grønne knappen med strek for å zoome ut, eller på de grønne pilene for å se tilstøtende kart.


METAR-TAF: